Time;durP1;ratioP1;P1;durP2;ratioP2;P2;SDS_P1;SDS_P2;PMS_P1;PMS_P2;Temp;Humidity;BMP_temperature;BMP_pressure;BME280_temperature;BME280_humidity;BME280_pressure;Samples;Min_cycle;Max_cycle;Signal;HPM_P1;HPM_P2
2022/10/04 00:01:46;;;;;;;14.43;7.78;;;;;;;10.91;86.06;102278.88;5026820;28;20569;-68
2022/10/04 00:04:25;;;;;;;16.50;8.50;;;;;;;10.95;86.06;102288.50;5031128;28;20042;-68
2022/10/04 00:07:12;;;;;;;16.15;8.32;;;;;;;10.96;86.23;102283.25;5029102;28;20046;-68
2022/10/04 00:09:48;;;;;;;19.70;8.40;;;;;;;10.98;86.21;102288.50;5029694;28;20100;-69
2022/10/04 00:13:01;;;;;;;18.48;8.13;;;;;;;10.97;86.23;102278.81;5027538;28;20076;-69
2022/10/04 00:15:36;;;;;;;15.27;7.30;;;;;;;10.99;86.20;102283.19;5028193;28;20524;-69
2022/10/04 00:18:39;;;;;;;14.27;7.78;;;;;;;10.99;86.30;102264.72;5026168;28;20132;-69
2022/10/04 00:21:07;;;;;;;15.75;7.97;;;;;;;10.99;85.91;102272.63;5036628;28;20050;-69
2022/10/04 00:23:34;;;;;;;12.95;7.55;;;;;;;10.97;86.11;102278.81;5019131;28;20034;-68
2022/10/04 00:26:22;;;;;;;13.40;7.55;;;;;;;10.96;86.51;102270.06;5018759;28;20042;-68
2022/10/04 00:28:50;;;;;;;18.13;7.72;;;;;;;10.95;86.16;102272.69;5021346;28;20054;-68
2022/10/04 00:31:25;;;;;;;13.02;8.15;;;;;;;10.94;86.22;102256.00;5020566;28;20046;-68
2022/10/04 00:34:15;;;;;;;12.88;8.13;;;;;;;10.95;86.07;102256.84;5022038;28;20038;-68
2022/10/04 00:37:54;;;;;;;14.10;8.02;;;;;;;10.93;86.17;102253.38;5030401;28;20034;-68
2022/10/04 00:40:27;;;;;;;13.30;7.57;;;;;;;10.87;86.23;102260.44;5027493;28;20046;-68
2022/10/04 00:43:05;;;;;;;12.95;8.00;;;;;;;10.87;86.45;102265.72;5030355;28;20117;-68
2022/10/04 00:45:40;;;;;;;13.70;7.50;;;;;;;10.83;86.30;102263.13;5030600;28;20112;-69
2022/10/04 00:48:06;;;;;;;12.77;7.85;;;;;;;10.81;86.46;102256.97;5030024;28;20150;-68
2022/10/04 00:51:12;;;;;;;18.23;7.53;;;;;;;10.80;86.45;102250.84;5023945;28;20050;-68
2022/10/04 00:53:56;;;;;;;16.65;7.88;;;;;;;10.79;86.38;102241.16;5029153;28;20096;-67
2022/10/04 00:56:36;;;;;;;11.73;7.45;;;;;;;10.78;86.42;102244.69;5033286;28;20045;-67
2022/10/04 00:59:25;;;;;;;15.63;8.10;;;;;;;10.77;86.36;102242.94;5034649;28;20816;-67
2022/10/04 01:02:20;;;;;;;14.63;7.93;;;;;;;10.72;86.38;102235.06;5026605;28;20164;-67
2022/10/04 01:05:00;;;;;;;15.85;8.20;;;;;;;10.71;86.13;102237.72;5027747;28;20049;-67
2022/10/04 01:07:45;;;;;;;15.77;8.75;;;;;;;10.70;86.13;102243.91;5024407;28;20034;-67
2022/10/04 01:10:23;;;;;;;11.88;7.65;;;;;;;10.65;86.09;102238.66;5025262;28;20072;-67
2022/10/04 01:13:16;;;;;;;15.70;8.15;;;;;;;10.63;86.28;102237.78;5026341;28;20045;-67
2022/10/04 01:16:10;;;;;;;15.48;8.80;;;;;;;10.60;86.16;102234.31;5028984;28;20064;-67
2022/10/04 01:18:37;;;;;;;17.35;8.77;;;;;;;10.55;86.28;102227.28;5025056;28;20055;-67
2022/10/04 01:21:29;;;;;;;12.13;8.43;;;;;;;10.54;86.57;102224.69;5029457;28;20042;-67
2022/10/04 01:23:58;;;;;;;14.35;9.15;;;;;;;10.52;86.58;102211.53;5024922;28;20049;-67
2022/10/04 01:26:25;;;;;;;17.25;9.60;;;;;;;10.51;86.62;102217.69;5024728;28;20496;-67
2022/10/04 01:28:57;;;;;;;14.45;8.55;;;;;;;10.51;86.74;102209.75;5024831;28;20048;-67
2022/10/04 01:31:30;;;;;;;16.70;9.57;;;;;;;10.54;87.00;102203.59;5025024;28;20120;-67
2022/10/04 01:34:00;;;;;;;15.57;9.45;;;;;;;10.56;87.05;102205.31;5023117;28;20091;-69
2022/10/04 01:36:28;;;;;;;18.48;9.85;;;;;;;10.58;87.12;102200.06;5023792;28;20502;-67
2022/10/04 01:38:56;;;;;;;13.27;8.95;;;;;;;10.60;87.19;102195.59;5023217;28;20034;-67
2022/10/04 01:41:43;;;;;;;14.25;9.77;;;;;;;10.62;87.31;102190.34;5023543;28;20042;-70
2022/10/04 01:44:25;;;;;;;17.45;9.38;;;;;;;10.63;87.50;102195.59;5025366;28;20579;-70
2022/10/04 01:46:58;;;;;;;16.08;10.20;;;;;;;10.67;87.38;102183.25;5023881;28;20582;-70
2022/10/04 01:49:31;;;;;;;14.57;10.38;;;;;;;10.69;87.55;102177.06;5032606;28;20046;-67
2022/10/04 01:52:17;;;;;;;17.05;9.80;;;;;;;10.72;87.62;102177.03;5032257;28;20750;-67
2022/10/04 01:54:58;;;;;;;15.55;9.60;;;;;;;10.74;87.34;102178.78;5032983;28;20520;-67
2022/10/04 01:57:43;;;;;;;19.25;10.70;;;;;;;10.77;87.16;102168.22;5032300;28;20046;-67
2022/10/04 02:00:12;;;;;;;16.48;10.48;;;;;;;10.77;87.15;102173.50;5032683;28;20551;-67
2022/10/04 02:02:50;;;;;;;15.05;10.50;;;;;;;10.76;87.16;102185.78;5032641;28;20112;-67
2022/10/04 02:05:29;;;;;;;19.25;10.98;;;;;;;10.75;87.41;102170.84;5029371;28;20044;-67
2022/10/04 02:08:05;;;;;;;18.85;10.40;;;;;;;10.76;87.23;102179.66;5029409;28;20046;-67
2022/10/04 02:10:38;;;;;;;17.92;11.43;;;;;;;10.71;87.09;102171.78;5025885;28;20038;-68
2022/10/04 02:13:17;;;;;;;17.80;10.38;;;;;;;10.68;87.21;102166.53;5026936;28;20046;-67
2022/10/04 02:15:46;;;;;;;16.08;10.35;;;;;;;10.62;87.15;102162.19;5032857;28;20957;-67
2022/10/04 02:18:19;;;;;;;14.57;9.15;;;;;;;10.57;87.24;102170.16;5030134;28;20088;-67
2022/10/04 02:20:50;;;;;;;13.48;9.88;;;;;;;10.53;87.19;102168.41;5023701;28;20046;-67
2022/10/04 02:23:21;;;;;;;20.27;10.35;;;;;;;10.47;87.25;102150.03;5020333;28;20045;-67
2022/10/04 02:25:48;;;;;;;16.10;9.68;;;;;;;10.41;87.27;102137.78;5026461;28;20042;-67
2022/10/04 02:28:17;;;;;;;18.33;10.00;;;;;;;10.36;87.22;102131.66;5023175;28;20096;-67
2022/10/04 02:33:44;;;;;;;20.17;9.43;;;;;;;10.24;87.21;102111.53;5023624;28;20046;-67
2022/10/04 02:36:12;;;;;;;17.95;9.88;;;;;;;10.20;87.27;102106.28;5023968;28;20515;-67
2022/10/04 02:38:49;;;;;;;20.30;10.40;;;;;;;10.16;87.51;102104.59;5022898;28;20042;-67
2022/10/04 02:41:30;;;;;;;16.48;10.38;;;;;;;10.15;87.63;102111.59;5024134;28;20755;-66
2022/10/04 02:44:32;;;;;;;17.25;10.27;;;;;;;10.15;88.08;102114.25;5024561;28;20050;-66
2022/10/04 02:47:16;;;;;;;20.33;10.88;;;;;;;10.17;87.78;102116.88;5022940;28;20528;-66
2022/10/04 02:49:49;;;;;;;20.50;10.57;;;;;;;10.18;87.76;102110.69;5024219;28;20822;-68
2022/10/04 02:52:37;;;;;;;17.38;11.05;;;;;;;10.18;87.71;102118.59;5021225;28;20047;-67
2022/10/04 02:55:26;;;;;;;19.27;10.90;;;;;;;10.16;87.58;102115.13;5020658;28;20408;-68
2022/10/04 02:57:55;;;;;;;21.83;10.63;;;;;;;10.13;87.46;102109.88;5023273;28;20865;-67
2022/10/04 03:00:31;;;;;;;20.15;10.60;;;;;;;10.09;87.39;102104.63;5022643;28;20042;-67
2022/10/04 03:03:43;;;;;;;14.95;10.20;;;;;;;10.05;87.50;102099.38;5023307;28;20034;-68
2022/10/04 03:06:18;;;;;;;16.65;10.43;;;;;;;10.02;87.82;102092.38;5023151;28;20041;-68
2022/10/04 03:08:50;;;;;;;14.95;10.85;;;;;;;10.00;87.74;102099.44;5022481;28;20057;-68
2022/10/04 03:11:22;;;;;;;21.20;12.18;;;;;;;9.96;87.73;102092.44;5023243;28;20081;-67
2022/10/04 03:13:57;;;;;;;21.85;11.43;;;;;;;9.94;87.77;102095.06;5027887;28;20516;-68
2022/10/04 03:16:26;;;;;;;22.02;11.90;;;;;;;9.93;87.99;102092.47;5022679;28;20042;-68
2022/10/04 03:18:56;;;;;;;18.05;11.20;;;;;;;9.91;88.17;102089.84;5022879;28;20057;-70
2022/10/04 03:21:25;;;;;;;18.67;11.32;;;;;;;9.87;88.18;102080.22;5020618;28;20208;-70
2022/10/04 03:23:53;;;;;;;22.08;11.60;;;;;;;9.86;88.09;102081.09;5022450;28;20125;-70
2022/10/04 03:26:36;;;;;;;18.80;11.55;;;;;;;9.84;88.40;102071.47;5021861;28;20050;-67
2022/10/04 03:29:09;;;;;;;22.63;11.43;;;;;;;9.81;88.46;102068.84;5024238;28;20445;-67
2022/10/04 03:31:46;;;;;;;22.23;11.95;;;;;;;9.78;88.64;102077.66;5025638;28;20050;-67
2022/10/04 03:34:36;;;;;;;17.92;10.52;;;;;;;9.76;88.36;102074.16;5027791;28;20478;-66
2022/10/04 03:37:19;;;;;;;17.45;9.93;;;;;;;9.72;88.54;102081.19;5029321;28;20034;-67
2022/10/04 03:39:51;;;;;;;18.45;10.30;;;;;;;9.68;88.49;102081.22;5029495;28;20136;-66
2022/10/04 03:42:26;;;;;;;23.45;10.77;;;;;;;9.67;88.53;102077.72;5028954;28;20050;-67
2022/10/04 03:45:00;;;;;;;17.48;10.88;;;;;;;9.63;88.65;102073.38;5030794;28;20085;-67
2022/10/04 03:47:32;;;;;;;15.15;10.80;;;;;;;9.59;88.62;102087.41;5028355;28;20042;-67
2022/10/04 03:50:24;;;;;;;12.90;9.30;;;;;;;9.54;88.80;102083.97;5030005;28;20050;-67
2022/10/04 03:53:06;;;;;;;17.70;10.63;;;;;;;9.48;88.62;102080.47;5030126;28;20164;-67
2022/10/04 03:55:38;;;;;;;15.52;10.50;;;;;;;9.45;88.60;102071.72;5029164;28;20065;-66
2022/10/04 03:58:10;;;;;;;17.35;10.25;;;;;;;9.41;88.68;102067.38;5028876;28;20037;-67
2022/10/04 04:01:07;;;;;;;19.02;10.52;;;;;;;9.34;88.61;102069.16;5030724;28;20071;-67
2022/10/04 04:03:54;;;;;;;18.15;10.32;;;;;;;9.27;88.70;102073.56;5030029;28;20041;-67
2022/10/04 04:06:24;;;;;;;20.48;10.10;;;;;;;9.20;88.70;102069.22;5030859;28;20049;-67
2022/10/04 04:08:56;;;;;;;20.00;10.60;;;;;;;9.16;88.74;102070.97;5030881;28;20070;-68
2022/10/04 04:11:26;;;;;;;15.57;10.25;;;;;;;9.12;88.84;102047.31;5028097;28;20123;-67
2022/10/04 04:14:07;;;;;;;16.85;10.40;;;;;;;9.07;88.77;102044.72;5030337;28;20811;-66
2022/10/04 04:16:36;;;;;;;13.75;9.82;;;;;;;9.05;89.11;102043.88;5028960;28;20046;-66
2022/10/04 04:19:12;;;;;;;20.17;10.52;;;;;;;9.05;89.17;102035.09;5030686;28;20064;-67
2022/10/04 04:21:41;;;;;;;16.33;10.48;;;;;;;9.04;89.34;102039.50;5029815;28;20038;-67
2022/10/04 04:24:30;;;;;;;19.45;10.70;;;;;;;9.02;89.37;102034.22;5020749;28;20042;-67
2022/10/04 04:27:04;;;;;;;17.10;10.45;;;;;;;9.02;89.07;102036.84;5022534;28;20091;-66
2022/10/04 04:29:46;;;;;;;18.85;10.18;;;;;;;9.05;89.34;102042.97;5022314;28;20163;-67
2022/10/04 04:32:35;;;;;;;19.02;10.20;;;;;;;9.02;89.38;102039.47;5020616;28;20469;-66
2022/10/04 04:35:07;;;;;;;17.70;10.30;;;;;;;9.01;89.29;102036.88;5021106;28;20057;-67
2022/10/04 04:37:36;;;;;;;19.42;10.50;;;;;;;9.02;89.27;102043.88;5022597;28;20532;-67
2022/10/04 04:40:23;;;;;;;15.70;10.40;;;;;;;9.02;89.32;102047.38;5020349;28;20119;-67
2022/10/04 04:42:51;;;;;;;16.70;9.25;;;;;;;9.00;89.36;102053.53;5020664;28;20141;-67
2022/10/04 04:45:28;;;;;;;16.70;9.93;;;;;;;8.99;89.64;102043.88;5021564;28;20455;-67
2022/10/04 04:47:57;;;;;;;15.52;9.63;;;;;;;8.95;89.35;102032.50;5020291;28;20050;-68
2022/10/04 04:50:31;;;;;;;14.90;9.02;;;;;;;8.94;89.39;102032.53;5027306;28;20491;-68
2022/10/04 04:53:28;;;;;;;15.55;9.48;;;;;;;8.91;89.45;102022.00;5027474;28;20053;-68
2022/10/04 04:56:05;;;;;;;16.17;9.55;;;;;;;8.93;89.48;102022.88;5030677;28;20131;-68
2022/10/04 04:58:45;;;;;;;15.90;9.52;;;;;;;8.94;89.65;102037.78;5027649;28;20501;-68
2022/10/04 05:01:34;;;;;;;18.77;9.07;;;;;;;8.94;89.61;102043.91;5029382;28;20038;-68
2022/10/04 05:04:25;;;;;;;15.45;9.25;;;;;;;8.93;89.57;102029.00;5027159;28;20042;-68
2022/10/04 05:07:05;;;;;;;16.88;9.40;;;;;;;8.93;89.66;102031.63;5028624;28;20049;-68
2022/10/04 05:09:37;;;;;;;14.57;8.68;;;;;;;8.93;89.48;102017.63;5029071;28;20542;-69
2022/10/04 05:12:16;;;;;;;18.27;9.43;;;;;;;8.89;89.59;102026.38;5026505;28;20119;-68
2022/10/04 05:14:51;;;;;;;16.58;8.93;;;;;;;8.89;89.63;102029.91;5028800;28;20045;-67
2022/10/04 05:17:25;;;;;;;17.02;8.73;;;;;;;8.85;89.79;102021.13;5027754;28;20045;-67
2022/10/04 05:19:58;;;;;;;15.95;8.68;;;;;;;8.82;89.52;102020.28;5024623;28;20042;-67
2022/10/04 05:22:27;;;;;;;19.83;9.38;;;;;;;8.79;89.73;102022.94;5039195;28;20483;-67
2022/10/04 05:25:01;;;;;;;18.63;8.90;;;;;;;8.76;89.62;102022.94;5026805;28;20550;-67
2022/10/04 05:27:35;;;;;;;;;;;;;;;8.69;89.46;102022.09;5022823;28;20042;-67
2022/10/04 05:30:36;;;;;;;20.58;9.40;;;;;;;8.67;89.75;102023.84;5027875;28;19938;-67
2022/10/04 05:33:09;;;;;;;13.65;8.63;;;;;;;8.62;89.86;102023.84;5026416;28;20034;-67
2022/10/04 05:35:55;;;;;;;17.35;8.50;;;;;;;8.61;89.69;102023.88;5025895;28;20038;-68
2022/10/04 05:39:02;;;;;;;15.13;8.50;;;;;;;8.57;89.62;102023.00;5021855;28;20042;-67
2022/10/04 05:41:48;;;;;;;16.95;8.52;;;;;;;8.53;89.77;102026.50;5029549;28;20057;-68
2022/10/04 05:44:25;;;;;;;18.60;8.93;;;;;;;8.53;89.86;102029.16;5030814;28;20046;-68
2022/10/04 05:47:00;;;;;;;15.18;8.25;;;;;;;8.51;90.25;102031.78;5031278;28;20038;-66
2022/10/04 05:49:42;;;;;;;16.20;9.00;;;;;;;8.52;90.30;102037.91;5028982;28;20053;-68
2022/10/04 05:52:37;;;;;;;21.67;8.82;;;;;;;8.55;90.22;102032.66;5031952;28;20049;-68
2022/10/04 05:55:27;;;;;;;25.05;8.18;;;;;;;8.58;90.31;102042.28;5028892;28;20508;-68
2022/10/04 05:58:31;;;;;;;20.67;8.68;;;;;;;8.60;90.38;102030.88;5033122;28;20041;-68
2022/10/04 06:01:39;;;;;;;17.77;7.40;;;;;;;8.64;90.24;102037.03;5030779;28;20038;-68
2022/10/04 06:04:31;;;;;;;15.85;7.50;;;;;;;8.63;90.25;102028.25;5031344;28;20407;-68
2022/10/04 06:07:14;;;;;;;17.65;8.05;;;;;;;8.63;90.15;102035.25;5032212;28;20511;-68
2022/10/04 06:10:19;;;;;;;15.85;7.78;;;;;;;8.64;90.23;102035.25;5032525;28;20042;-68
2022/10/04 06:13:14;;;;;;;13.87;7.73;;;;;;;8.67;90.26;102032.63;5043588;28;20038;-68
2022/10/04 06:16:02;;;;;;;22.52;8.13;;;;;;;8.72;90.17;102036.97;5030549;28;20050;-68
2022/10/04 06:19:11;;;;;;;19.10;7.75;;;;;;;8.79;90.36;102039.59;5025859;28;20495;-68
2022/10/04 06:22:17;;;;;;;19.70;7.78;;;;;;;8.86;90.23;102043.06;5032576;28;20627;-68
2022/10/04 06:24:53;;;;;;;;;;;;;;;8.89;90.33;102042.16;5028369;28;20041;-68
2022/10/04 06:28:09;;;;;;;13.63;7.20;;;;;;;8.94;90.31;102040.41;5032672;28;20446;-68
2022/10/04 06:31:01;;;;;;;13.80;7.45;;;;;;;8.97;90.18;102046.53;5029859;28;20038;-68
2022/10/04 06:34:02;;;;;;;13.18;7.68;;;;;;;9.00;90.04;102046.50;5024113;28;20050;-68
2022/10/04 06:37:14;;;;;;;13.25;7.65;;;;;;;9.04;90.02;102049.13;5025087;28;20038;-68
2022/10/04 06:40:07;;;;;;;14.98;7.43;;;;;;;9.07;89.96;102047.34;5032225;28;20046;-67
2022/10/04 06:42:41;;;;;;;13.43;7.55;;;;;;;9.12;90.04;102050.84;5030181;28;20058;-68
2022/10/04 06:45:52;;;;;;;13.68;7.30;;;;;;;9.16;90.02;102049.94;5031886;28;20042;-68
2022/10/04 06:48:22;;;;;;;11.55;7.47;;;;;;;9.23;90.02;102057.81;5032178;28;20117;-68
2022/10/04 06:51:17;;;;;;;16.85;7.70;;;;;;;9.27;89.82;102038.47;5032236;28;20606;-68
2022/10/04 06:54:13;;;;;;;13.82;7.65;;;;;;;9.29;89.84;102031.44;5029333;28;20092;-68
2022/10/04 06:57:25;;;;;;;14.02;7.55;;;;;;;9.31;89.73;102030.53;5025822;28;20096;-68
2022/10/04 07:00:18;;;;;;;17.10;7.47;;;;;;;9.34;89.79;102032.31;5024656;28;20046;-68
2022/10/04 07:02:45;;;;;;;11.10;7.80;;;;;;;9.37;89.63;102040.16;5025573;28;20034;-68
2022/10/04 07:05:31;;;;;;;12.45;7.28;;;;;;;9.42;89.57;102042.78;5031067;28;20030;-68
2022/10/04 07:08:30;;;;;;;13.75;8.18;;;;;;;9.48;89.75;102040.13;5029174;28;20034;-68
2022/10/04 07:11:13;;;;;;;11.93;7.20;;;;;;;9.55;89.70;102039.19;5026549;28;20048;-68
2022/10/04 07:13:52;;;;;;;18.50;7.97;;;;;;;9.63;89.85;102042.63;5031964;28;20057;-69
2022/10/04 07:16:31;;;;;;;13.10;7.72;;;;;;;9.70;89.73;102039.97;5032540;28;20764;-68
2022/10/04 07:19:33;;;;;;;14.13;7.95;;;;;;;9.83;89.64;102051.28;5024716;28;20056;-68
2022/10/04 07:22:07;;;;;;;14.82;8.15;;;;;;;9.94;89.50;102044.16;5032033;28;20559;-68
2022/10/04 07:24:44;;;;;;;13.25;7.18;;;;;;;10.04;89.28;102039.69;5028812;28;20769;-68
2022/10/04 07:27:20;;;;;;;13.27;7.10;;;;;;;10.13;89.20;102044.84;5032103;28;20145;-68
2022/10/04 07:29:55;;;;;;;14.00;7.57;;;;;;;10.18;88.94;102035.16;5031626;28;20547;-68
2022/10/04 07:32:34;;;;;;;;;;;;;;;10.24;88.85;102043.00;5031804;28;20598;-68
2022/10/04 07:35:24;;;;;;;10.98;6.75;;;;;;;10.29;88.59;102039.47;5031248;28;19925;-68
2022/10/04 07:38:12;;;;;;;13.70;7.07;;;;;;;10.38;88.51;102036.75;5030129;28;20050;-68
2022/10/04 07:41:02;;;;;;;15.00;7.30;;;;;;;10.47;87.93;102025.25;5031632;28;20495;-68
2022/10/04 07:43:39;;;;;;;19.13;7.65;;;;;;;10.61;88.13;102035.66;5025636;28;20038;-68
2022/10/04 07:46:41;;;;;;;15.82;7.40;;;;;;;10.77;87.66;102037.19;5031347;28;20527;-68
2022/10/04 07:49:22;;;;;;;18.10;7.25;;;;;;;10.86;87.90;102044.13;5030964;28;20487;-68
2022/10/04 07:52:36;;;;;;;11.40;6.60;;;;;;;10.95;87.67;102032.56;5030992;28;20077;-68
2022/10/04 07:55:21;;;;;;;29.92;8.25;;;;;;;11.13;87.07;102020.91;5029634;28;20046;-68
2022/10/04 07:58:17;;;;;;;18.27;7.35;;;;;;;11.26;86.85;102024.25;5030915;28;20049;-69
2022/10/04 08:00:59;;;;;;;11.43;6.72;;;;;;;11.40;86.70;102032.84;5024984;28;20038;-68
2022/10/04 08:04:03;;;;;;;15.30;7.10;;;;;;;11.57;86.36;102026.44;5028910;28;20041;-68
2022/10/04 08:06:55;;;;;;;10.93;6.60;;;;;;;11.72;86.01;102031.50;5030827;28;20045;-68
2022/10/04 08:09:51;;;;;;;18.83;7.00;;;;;;;11.85;85.62;102028.66;5029168;28;20046;-68
2022/10/04 08:12:42;;;;;;;14.38;6.82;;;;;;;11.97;85.15;102025.78;5029673;28;20901;-68
2022/10/04 08:15:41;;;;;;;16.95;7.05;;;;;;;12.06;84.89;102027.44;5031179;28;20528;-68
2022/10/04 08:18:25;;;;;;;22.05;7.28;;;;;;;12.17;84.69;102016.66;5020676;28;20065;-68
2022/10/04 08:21:04;;;;;;;28.60;7.45;;;;;;;12.29;84.23;102021.72;5029241;28;20050;-68
2022/10/04 08:24:02;;;;;;;14.43;6.72;;;;;;;12.39;83.63;102015.34;5029343;28;20041;-68
2022/10/04 08:27:21;;;;;;;19.83;7.40;;;;;;;12.50;83.59;102011.63;5030012;28;20490;-68
2022/10/04 08:30:16;;;;;;;15.00;6.43;;;;;;;12.62;83.27;102019.31;5029517;28;20057;-68
2022/10/04 08:33:06;;;;;;;;;;;;;;;12.67;82.76;102011.28;5029165;28;20048;-68
2022/10/04 08:35:39;;;;;;;16.15;6.43;;;;;;;12.78;82.53;102013.72;5030832;28;19929;-68
2022/10/04 08:38:58;;;;;;;19.17;7.70;;;;;;;12.94;82.34;102011.59;5029895;28;20068;-68
2022/10/04 08:41:50;;;;;;;20.17;6.47;;;;;;;13.09;82.20;102015.69;5024628;28;20054;-68
2022/10/04 08:44:51;;;;;;;14.70;6.18;;;;;;;13.24;81.63;102017.13;5023429;28;20126;-68
2022/10/04 08:48:24;;;;;;;14.55;6.38;;;;;;;13.36;81.14;102011.56;5024356;28;20042;-69
2022/10/04 08:51:22;;;;;;;18.13;6.55;;;;;;;13.45;80.35;102014.03;5027047;28;20053;-68
2022/10/04 08:54:34;;;;;;;13.15;5.93;;;;;;;13.52;80.34;102020.03;5025046;28;20045;-68
2022/10/04 08:57:11;;;;;;;14.13;5.80;;;;;;;13.61;80.21;102009.22;5028468;28;20516;-68
2022/10/04 09:00:19;;;;;;;12.50;5.68;;;;;;;13.69;79.98;102014.34;5029687;28;20062;-68
2022/10/04 09:03:00;;;;;;;17.90;7.35;;;;;;;13.82;79.47;102010.50;5030336;28;20046;-68
2022/10/04 09:05:52;;;;;;;13.75;6.15;;;;;;;13.92;78.73;102010.25;5030113;28;20104;-68
2022/10/04 09:08:28;;;;;;;11.13;6.00;;;;;;;14.01;78.81;102015.31;5029270;28;20085;-69
2022/10/04 09:11:32;;;;;;;15.25;5.75;;;;;;;14.18;78.41;102021.94;5025158;28;20546;-68
2022/10/04 09:14:41;;;;;;;14.75;5.72;;;;;;;14.30;77.29;102013.66;5025366;28;20893;-69
2022/10/04 09:18:06;;;;;;;14.52;6.28;;;;;;;14.45;74.17;102007.91;5028322;28;20057;-69
2022/10/04 09:21:02;;;;;;;16.02;5.55;;;;;;;14.57;75.42;102014.69;5031926;28;20050;-68
2022/10/04 09:23:29;;;;;;;16.10;5.78;;;;;;;14.67;75.11;101998.53;5033656;28;20046;-69
2022/10/04 09:26:14;;;;;;;15.80;6.32;;;;;;;14.79;74.57;101991.97;5033299;28;20034;-68
2022/10/04 09:29:22;;;;;;;10.55;5.82;;;;;;;14.89;73.66;102007.59;5032039;28;20049;-69
2022/10/04 09:32:15;;;;;;;11.40;6.15;;;;;;;15.02;73.87;102004.53;5032849;28;20523;-68
2022/10/04 09:35:17;;;;;;;29.85;6.93;;;;;;;15.16;73.34;102006.81;5032756;28;20105;-68
2022/10/04 09:37:50;;;;;;;10.65;5.88;;;;;;;15.25;72.12;102002.97;5032999;28;20042;-69
2022/10/04 09:40:51;;;;;;;11.73;5.68;;;;;;;15.30;72.28;101991.28;5032340;28;20042;-69
2022/10/04 09:43:53;;;;;;;20.40;6.32;;;;;;;15.39;71.20;101992.78;5033042;28;20046;-69
2022/10/04 09:46:50;;;;;;;8.60;5.75;;;;;;;15.48;70.70;101981.84;5025957;28;20093;-69
2022/10/04 09:50:03;;;;;;;12.93;6.10;;;;;;;15.61;71.54;101986.78;5026172;28;20116;-68
2022/10/04 09:52:48;;;;;;;12.55;6.30;;;;;;;15.75;71.59;101983.66;5026912;28;20034;-68
2022/10/04 09:55:47;;;;;;;11.85;5.55;;;;;;;15.90;67.83;101995.56;5033205;28;20050;-69
2022/10/04 09:58:28;;;;;;;10.95;5.97;;;;;;;15.95;68.68;101998.94;5031535;28;20037;-69
2022/10/04 10:01:15;;;;;;;13.55;5.50;;;;;;;16.01;66.95;101981.91;5033244;28;20439;-69
2022/10/04 10:04:23;;;;;;;17.65;6.05;;;;;;;16.01;65.37;101990.75;5026874;28;20503;-69
2022/10/04 10:07:28;;;;;;;17.27;6.20;;;;;;;16.02;66.16;101991.63;5026205;28;20558;-70
2022/10/04 10:14:10;;;;;;;15.88;6.47;;;;;;;16.20;65.96;101975.00;5028709;28;20070;-69
2022/10/04 10:17:26;;;;;;;18.65;6.00;;;;;;;16.30;66.24;101975.53;5032345;28;20042;-69
2022/10/04 10:20:15;;;;;;;10.05;4.82;;;;;;;16.40;64.39;101973.41;5032289;28;20061;-69
2022/10/04 10:23:16;;;;;;;8.98;4.85;;;;;;;16.51;64.64;101983.66;5032269;28;20518;-69
2022/10/04 10:26:01;;;;;;;18.05;6.13;;;;;;;16.60;64.42;101965.53;5031614;28;20525;-69
2022/10/04 10:29:01;;;;;;;13.55;4.70;;;;;;;16.69;64.18;101964.34;5031597;28;20041;-68
2022/10/04 10:31:43;;;;;;;14.93;5.13;;;;;;;16.80;64.22;101963.06;5029078;28;20508;-70
2022/10/04 10:35:10;;;;;;;11.73;5.13;;;;;;;16.84;62.40;101952.22;5025950;28;20830;-69
2022/10/04 10:38:23;;;;;;;10.73;4.80;;;;;;;16.94;63.60;101951.88;5028823;28;20495;-69
2022/10/04 10:41:38;;;;;;;9.77;4.75;;;;;;;17.08;63.87;101944.22;5027565;28;20049;-68
2022/10/04 10:44:20;;;;;;;9.70;4.03;;;;;;;17.08;64.05;101949.56;5030079;28;20065;-69
2022/10/04 10:47:17;;;;;;;8.70;4.22;;;;;;;17.13;64.11;101958.22;5028919;28;20050;-69
2022/10/04 10:50:15;;;;;;;10.90;4.25;;;;;;;17.30;64.10;101956.66;5028536;28;20045;-69
2022/10/04 10:53:22;;;;;;;10.23;4.88;;;;;;;17.46;63.53;101955.09;5031260;28;20073;-69
2022/10/04 10:56:35;;;;;;;8.88;4.13;;;;;;;17.64;62.56;101956.13;5030460;28;20046;-69
2022/10/04 10:59:36;;;;;;;12.50;4.78;;;;;;;17.75;61.75;101952.16;5032307;28;20056;-69
2022/10/04 11:02:36;;;;;;;9.30;4.15;;;;;;;17.85;61.03;101958.81;5031656;28;20044;-69
2022/10/04 11:05:19;;;;;;;14.85;4.53;;;;;;;17.95;60.38;101969.94;5029962;28;20488;-69
2022/10/04 11:08:28;;;;;;;9.55;4.32;;;;;;;18.05;59.62;101968.63;5032020;28;20542;-69
2022/10/04 11:11:13;;;;;;;9.27;3.97;;;;;;;18.16;59.99;101970.84;5031026;28;20553;-69
2022/10/04 11:14:15;;;;;;;16.77;4.00;;;;;;;18.24;60.21;101966.03;5025036;28;20992;-69
2022/10/04 11:17:00;;;;;;;7.28;3.60;;;;;;;18.35;59.20;101956.66;5024420;28;20491;-69
2022/10/04 11:20:12;;;;;;;10.65;4.10;;;;;;;18.42;59.45;101945.63;5029356;28;20471;-69
2022/10/04 11:23:31;;;;;;;5.40;3.70;;;;;;;18.50;58.96;101945.25;5031238;28;20526;-69
2022/10/04 11:26:38;;;;;;;9.63;3.75;;;;;;;18.59;58.91;101936.81;5025438;28;20049;-69
2022/10/04 11:29:30;;;;;;;10.02;3.63;;;;;;;18.68;59.05;101943.53;5030645;28;20038;-69
2022/10/04 11:32:27;;;;;;;7.32;3.50;;;;;;;18.76;57.43;101928.03;5031429;28;20464;-69
2022/10/04 11:35:35;;;;;;;9.05;3.70;;;;;;;18.79;55.64;101935.00;5023369;28;20057;-69
2022/10/04 11:38:34;;;;;;;14.02;4.07;;;;;;;18.79;56.35;101924.31;5032162;28;20077;-69
2022/10/04 11:41:29;;;;;;;8.10;3.47;;;;;;;18.87;55.15;101915.94;5027089;28;20046;-68
2022/10/04 11:44:17;;;;;;;14.90;3.80;;;;;;;18.87;55.29;101914.13;5023856;28;20053;-69
2022/10/04 11:47:31;;;;;;;5.75;3.33;;;;;;;18.96;55.80;101920.03;5031425;28;20534;-69
2022/10/04 11:50:27;;;;;;;17.85;4.22;;;;;;;19.06;55.96;101915.97;5031689;28;20046;-69
2022/10/04 11:53:26;;;;;;;8.13;3.05;;;;;;;19.17;54.99;101908.28;5030621;28;20045;-69
2022/10/04 11:56:19;;;;;;;9.20;3.40;;;;;;;19.28;55.50;101901.53;5019583;28;20058;-69
2022/10/04 11:59:31;;;;;;;3.90;2.70;;;;;;;19.41;54.85;101894.59;5030963;28;20046;-69
2022/10/04 12:03:01;;;;;;;10.57;3.63;;;;;;;19.54;54.27;101879.66;5030706;28;20415;-69
2022/10/04 12:06:17;;;;;;;7.22;2.92;;;;;;;19.65;54.06;101883.59;5025534;28;20058;-69
2022/10/04 12:09:04;;;;;;;8.05;3.42;;;;;;;19.74;53.13;101874.22;5028475;28;20176;-69
2022/10/04 12:15:07;;;;;;;6.53;3.10;;;;;;;19.66;53.49;101894.19;5029802;28;20042;-69
2022/10/04 12:18:27;;;;;;;7.68;3.17;;;;;;;19.62;53.18;101891.78;5031061;28;20132;-69
2022/10/04 12:21:28;;;;;;;7.57;3.42;;;;;;;19.71;51.61;101878.78;5024663;28;20042;-68
2022/10/04 12:24:47;;;;;;;7.20;3.05;;;;;;;19.79;50.85;101875.69;5029370;28;20049;-69
2022/10/04 12:27:47;;;;;;;8.38;4.25;;;;;;;19.95;52.50;101880.28;5022388;28;20054;-69
2022/10/04 12:30:42;;;;;;;11.68;3.80;;;;;;;19.89;53.10;101872.59;5026298;28;20136;-69
2022/10/04 12:33:21;;;;;;;6.93;3.58;;;;;;;19.85;53.42;101871.81;5026863;28;20504;-69
2022/10/04 12:36:11;;;;;;;9.40;3.45;;;;;;;19.82;53.52;101870.19;5030002;28;20124;-69
2022/10/04 12:39:07;;;;;;;8.48;3.70;;;;;;;19.86;52.79;101866.44;5026415;28;20046;-69
2022/10/04 12:42:33;;;;;;;12.05;3.60;;;;;;;20.05;53.22;101853.88;5028222;28;20849;-68
2022/10/04 12:45:33;;;;;;;7.63;3.13;;;;;;;20.42;50.70;101852.69;5026254;28;20136;-67
2022/10/04 12:48:34;;;;;;;6.35;3.10;;;;;;;20.47;51.42;101844.41;5029405;28;20531;-70
2022/10/04 12:51:33;;;;;;;11.23;3.40;;;;;;;20.55;50.75;101842.16;5025764;28;20046;-69
2022/10/04 12:54:16;;;;;;;6.57;3.00;;;;;;;20.66;50.22;101838.88;5028519;28;20034;-70
2022/10/04 12:57:06;;;;;;;14.02;3.50;;;;;;;20.67;49.94;101832.56;5028023;28;20060;-69
2022/10/04 13:00:13;;;;;;;6.75;3.00;;;;;;;20.70;50.01;101826.16;5028329;28;20133;-69
2022/10/04 13:03:07;;;;;;;6.63;2.45;;;;;;;20.73;50.43;101821.50;5021209;28;20058;-68
2022/10/04 13:05:46;;;;;;;4.97;2.78;;;;;;;20.73;49.98;101820.63;5026992;28;20096;-67